Ogunquit, ME

3:41 PM EDT on May 26, 2017 (GMT -0400)
Footbridge Beach | | Change Station
Active Advisory: Coastal Flood Statement Active Notice: Coastal Flood Statement

Elev 10 ft 43.26 °N, 70.59 °W | Updated 5 seconds ago

Overcast
Overcast
57.2 °F
Feels Like 57.2 °F
N
2.0
Wind Variable Wind from NE

Today
High -- | Low -- °F
--% Chance of Precip.
Yesterday
High -- | Low -- °F
Precip. -- in
Pressure 29.56 in
Visibility 5.0 miles
Clouds Scattered Clouds 700 ft
Scattered Clouds 1100 ft
Overcast 1800 ft
Dew Point 54 °F
Humidity 91%
Rainfall 1.79 in
Snow Depth Not available.
5:08 AM 8:10 PM
New Moon, 2% visible
SPECI KSFM 261913Z AUTO 34008KT 5SM -RA BR SCT007 SCT011 OVC018 12/11 A2956 RMK AO2 P0001
Pressure 29.56 in
Visibility 5.0 miles
Clouds Scattered Clouds 700 ft
Scattered Clouds 1100 ft
Overcast 1800 ft
Dew Point 54 °F
Humidity 91%
Rainfall 1.79 in
Snow Depth Not available.
5:08 AM 8:10 PM
New Moon, 2% visible
SPECI KSFM 261913Z AUTO 34008KT 5SM -RA BR SCT007 SCT011 OVC018 12/11 A2956 RMK AO2 P0001

Get Your Daily Forecast Email!

Thanks for signing up!

Be on the lookout for a verification email in your inbox.

You'll start receiving severe weather alerts in your inbox..

×

10-Day Weather Forecast

Almanac

Astronomy

May. 26, 2017 Rise Set
Actual Time
Civil Twilight
Nautical Twilight
Astronomical Twilight
Moon
Length of Visible Light
Length of Day
Tomorrow will be .
, % of the Moon is Illuminated

Today's Extremes

State Highs State Lows

Community

WunderPhotos

Category 6

Welcome to Category 6. This is the collective home for Weather Underground's featured writeups by Dr. Jeff Masters (right), Bob Henson (left), Chris Burt, and other regular contributors.

Nearby

Air Quality

  Air Quality AQ Index Pollutant
Not available.

Snow Depth

Station Depth Elevation

Earthquake Activity

City Distance Mag. Time & Date
Minimum magnitude displayed is 2.5.

Coastal Water Temperatures

Place Temperature

Stations

Nearby Weather Stations

Station Location Temp. Windchill Dew Point Humidity Wind Precip. Elev Updated Type
                   

Watches & Warnings

Coastal Flood Statement
Issued: 2:49 PM EDT May. 26, 2017 – National Weather Service

... Isolated minor coastal flooding around the time of high tide
shortly after midnight...

* location... the southwest and midcoast of Maine and seacoast of
New Hampshire.

* Coastal flooding... minor.

* Timing... around the time of high tide shortly after midnight.

* Impacts... minor flooding may occur along the wharf side streets
and parking lots in Portland, Granite Point Road in Biddeford
and the backbay area of Hampton. Minor splash-over may occur in
Saco near the time of high tide.